PWSweather.com
Personal Weather Stations
Station Observations
KMICHEBO10
Cordwood Point, Lake Huron, Cheboygan, MI 49721

Cordwood Point, Lake HuronCheboygan, MI 49721

Lat: 45.663372, Lon: -84.3327789

Elevation: 584

Station Type: Davis Vantage Pro2 Wireless

https://www.lakehuronweather.org

Latest ConditionsUpdated 10:00:03 AM EDT Monday, Jun 17, 2019
Currently Today's Max Today's Min Today's Average
Temperature 56.7°F13.7°C 56.7°F13.7°C 45.5°F7.5°C 48.9°F9.4°C
Dew Point 50.9°F10.5°C 51.7°F10.9°C 43.9°F6.6°C 46.9°F8.3°C
Winds Calm Calm Calm -Calm - - Calm Calm
Wind Gusts -- -- - -
Humidity 81% 96% 81% 93%
Pressure 30.01 in1016.3 mb 30.01 in1016.3 mb 29.94 in1013.9 mb -
Hour Temp Dew Point Humidity Winds Wind Gusts Pressure Precip Precip Rate Daily Precip Total
10:00 AM 56.7°F13.7°C 50.9°F10.5°C 81% Calm Calm -- 30.01 in1016.3 mb - 0.00 in0.0 mm 0.00 in0.0 mm
09:50 AM 56.2°F13.4°C 51.1°F10.6°C 83% Calm Calm -- 30.01 in1016.3 mb - 0.00 in0.0 mm 0.00 in0.0 mm
09:40 AM 55.8°F13.2°C 51.0°F10.6°C 84% Calm Calm -- 30.01 in1016.3 mb - 0.00 in0.0 mm 0.00 in0.0 mm
09:30 AM 55.7°F13.2°C 51.3°F10.7°C 85% Calm Calm -- 30.00 in1015.9 mb - 0.00 in0.0 mm 0.00 in0.0 mm
09:20 AM 55.5°F13.1°C 51.7°F10.9°C 87% Calm Calm -- 30.00 in1015.9 mb - 0.00 in0.0 mm 0.00 in0.0 mm
09:10 AM 55.0°F12.8°C 51.5°F10.8°C 88% Calm Calm -- 30.00 in1015.9 mb - 0.00 in0.0 mm 0.00 in0.0 mm
09:00 AM 54.4°F12.4°C 51.2°F10.7°C 89% Calm Calm -- 30.00 in1015.9 mb - 0.00 in0.0 mm 0.00 in0.0 mm
08:50 AM 53.6°F12.0°C 50.8°F10.4°C 90% Calm Calm -- 30.00 in1015.9 mb - 0.00 in0.0 mm 0.00 in0.0 mm
08:40 AM 52.9°F11.6°C 50.4°F10.2°C 91% Calm Calm -- 30.00 in1015.9 mb - 0.00 in0.0 mm 0.00 in0.0 mm
08:30 AM 52.2°F11.2°C 50.0°F10.0°C 92% Calm Calm -- 30.00 in1015.9 mb - 0.00 in0.0 mm 0.00 in0.0 mm
08:20 AM 51.4°F10.8°C 49.5°F9.7°C 93% Calm Calm -- 29.99 in1015.6 mb - 0.00 in0.0 mm 0.00 in0.0 mm
08:10 AM 50.8°F10.4°C 49.4°F9.7°C 95% Calm Calm -- 29.99 in1015.6 mb - 0.00 in0.0 mm 0.00 in0.0 mm
08:00 AM 50.1°F10.1°C 48.8°F9.3°C 95% Calm Calm -- 29.99 in1015.6 mb - 0.00 in0.0 mm 0.00 in0.0 mm
07:50 AM 49.5°F9.7°C 48.1°F8.9°C 95% Calm Calm -- 29.99 in1015.6 mb - 0.00 in0.0 mm 0.00 in0.0 mm
07:40 AM 48.9°F9.4°C 47.6°F8.7°C 95% Calm Calm -- 29.99 in1015.6 mb - 0.00 in0.0 mm 0.00 in0.0 mm
07:30 AM 48.2°F9.0°C 46.8°F8.2°C 95% Calm Calm -- 29.99 in1015.6 mb - 0.00 in0.0 mm 0.00 in0.0 mm
07:20 AM 47.7°F8.7°C 46.3°F7.9°C 95% Calm Calm -- 29.98 in1015.2 mb - 0.00 in0.0 mm 0.00 in0.0 mm
07:10 AM 47.1°F8.4°C 46.0°F7.8°C 96% Calm Calm -- 29.98 in1015.2 mb - 0.00 in0.0 mm 0.00 in0.0 mm
07:00 AM 46.6°F8.1°C 45.5°F7.5°C 96% Calm Calm -- 29.98 in1015.2 mb - 0.00 in0.0 mm 0.00 in0.0 mm
06:50 AM 46.2°F7.9°C 44.9°F7.2°C 95% Calm Calm -- 29.97 in1014.9 mb - 0.00 in0.0 mm 0.00 in0.0 mm
06:40 AM 46.1°F7.8°C 45.0°F7.2°C 96% Calm Calm -- 29.97 in1014.9 mb - 0.00 in0.0 mm 0.00 in0.0 mm
06:30 AM 45.7°F7.6°C 44.4°F6.9°C 95% Calm Calm -- 29.97 in1014.9 mb - 0.00 in0.0 mm 0.00 in0.0 mm
06:20 AM 45.6°F7.6°C 44.3°F6.8°C 95% Calm Calm -- 29.97 in1014.9 mb - 0.00 in0.0 mm 0.00 in0.0 mm
06:10 AM 45.5°F7.5°C 44.2°F6.8°C 95% Calm Calm -- 29.96 in1014.6 mb - 0.00 in0.0 mm 0.00 in0.0 mm
06:00 AM 45.5°F7.5°C 44.2°F6.8°C 95% Calm Calm -- 29.96 in1014.6 mb - 0.00 in0.0 mm 0.00 in0.0 mm
05:50 AM 45.5°F7.5°C 44.2°F6.8°C 95% Calm Calm -- 29.96 in1014.6 mb - 0.00 in0.0 mm 0.00 in0.0 mm
05:40 AM 45.5°F7.5°C 43.9°F6.6°C 94% Calm Calm -- 29.96 in1014.6 mb - 0.00 in0.0 mm 0.00 in0.0 mm
05:30 AM 45.6°F7.6°C 44.0°F6.7°C 94% Calm Calm -- 29.96 in1014.6 mb - 0.00 in0.0 mm 0.00 in0.0 mm
05:20 AM 45.8°F7.7°C 44.2°F6.8°C 94% Calm Calm -- 29.96 in1014.6 mb - 0.00 in0.0 mm 0.00 in0.0 mm
05:10 AM 46.0°F7.8°C 44.4°F6.9°C 94% Calm Calm -- 29.96 in1014.6 mb - 0.00 in0.0 mm 0.00 in0.0 mm
05:00 AM 46.1°F7.8°C 44.5°F6.9°C 94% Calm Calm -- 29.95 in1014.2 mb - 0.00 in0.0 mm 0.00 in0.0 mm
04:50 AM 46.3°F7.9°C 44.7°F7.1°C 94% Calm Calm -- 29.96 in1014.6 mb - 0.00 in0.0 mm 0.00 in0.0 mm
04:40 AM 46.4°F8.0°C 44.8°F7.1°C 94% Calm Calm -- 29.95 in1014.2 mb - 0.00 in0.0 mm 0.00 in0.0 mm
04:30 AM 46.6°F8.1°C 45.0°F7.2°C 94% Calm Calm -- 29.96 in1014.6 mb - 0.00 in0.0 mm 0.00 in0.0 mm
04:20 AM 46.7°F8.2°C 45.1°F7.3°C 94% Calm Calm -- 29.96 in1014.6 mb - 0.00 in0.0 mm 0.00 in0.0 mm
04:10 AM 46.9°F8.3°C 45.3°F7.4°C 94% Calm Calm -- 29.96 in1014.6 mb - 0.00 in0.0 mm 0.00 in0.0 mm
04:00 AM 47.1°F8.4°C 45.4°F7.4°C 94% Calm Calm -- 29.96 in1014.6 mb - 0.00 in0.0 mm 0.00 in0.0 mm
03:50 AM 47.2°F8.4°C 45.6°F7.6°C 94% Calm Calm -- 29.96 in1014.6 mb - 0.00 in0.0 mm 0.00 in0.0 mm
03:40 AM 47.4°F8.6°C 45.8°F7.7°C 94% Calm Calm -- 29.97 in1014.9 mb - 0.00 in0.0 mm 0.00 in0.0 mm
03:30 AM 47.6°F8.7°C 46.2°F7.9°C 95% Calm Calm -- 29.97 in1014.9 mb - 0.00 in0.0 mm 0.00 in0.0 mm
03:20 AM 47.6°F8.7°C 46.2°F7.9°C 95% Calm Calm -- 29.96 in1014.6 mb - 0.00 in0.0 mm 0.00 in0.0 mm
03:10 AM 47.4°F8.6°C 46.0°F7.8°C 95% Calm Calm -- 29.96 in1014.6 mb - 0.00 in0.0 mm 0.00 in0.0 mm
03:00 AM 47.4°F8.6°C 45.8°F7.7°C 94% Calm Calm -- 29.96 in1014.6 mb - 0.00 in0.0 mm 0.00 in0.0 mm
02:50 AM 47.4°F8.6°C 45.8°F7.7°C 94% Calm Calm -- 29.96 in1014.6 mb - 0.00 in0.0 mm 0.00 in0.0 mm
02:40 AM 47.5°F8.6°C 45.9°F7.7°C 94% Calm Calm -- 29.96 in1014.6 mb - 0.00 in0.0 mm 0.00 in0.0 mm
02:30 AM 47.6°F8.7°C 46.0°F7.8°C 94% Calm Calm -- 29.96 in1014.6 mb - 0.00 in0.0 mm 0.00 in0.0 mm
02:20 AM 47.8°F8.8°C 46.2°F7.9°C 94% Calm Calm -- 29.97 in1014.9 mb - 0.00 in0.0 mm 0.00 in0.0 mm
02:10 AM 47.9°F8.8°C 46.3°F7.9°C 94% Calm Calm -- 29.96 in1014.6 mb - 0.00 in0.0 mm 0.00 in0.0 mm
02:00 AM 48.0°F8.9°C 46.4°F8.0°C 94% Calm Calm -- 29.96 in1014.6 mb - 0.00 in0.0 mm 0.00 in0.0 mm
01:50 AM 48.2°F9.0°C 46.3°F7.9°C 93% Calm Calm -- 29.96 in1014.6 mb - 0.00 in0.0 mm 0.00 in0.0 mm
01:40 AM 48.3°F9.1°C 46.7°F8.2°C 94% Calm Calm -- 29.96 in1014.6 mb - 0.00 in0.0 mm 0.00 in0.0 mm
01:30 AM 48.6°F9.2°C 46.6°F8.1°C 93% Calm Calm -- 29.96 in1014.6 mb - 0.00 in0.0 mm 0.00 in0.0 mm
01:20 AM 48.7°F9.3°C 46.8°F8.2°C 93% Calm Calm -- 29.96 in1014.6 mb - 0.00 in0.0 mm 0.00 in0.0 mm
01:10 AM 49.0°F9.4°C 47.1°F8.4°C 93% Calm Calm -- 29.96 in1014.6 mb - 0.00 in0.0 mm 0.00 in0.0 mm
01:00 AM 49.2°F9.6°C 47.3°F8.5°C 93% Calm Calm -- 29.96 in1014.6 mb - 0.00 in0.0 mm 0.00 in0.0 mm
12:50 AM 49.5°F9.7°C 47.6°F8.7°C 93% Calm Calm -- 29.95 in1014.2 mb - 0.00 in0.0 mm 0.00 in0.0 mm
12:40 AM 49.8°F9.9°C 47.5°F8.6°C 92% Calm Calm -- 29.95 in1014.2 mb - 0.00 in0.0 mm 0.00 in0.0 mm
12:30 AM 50.1°F10.1°C 48.2°F9.0°C 93% Calm Calm -- 29.95 in1014.2 mb - 0.00 in0.0 mm 0.00 in0.0 mm
12:20 AM 50.3°F10.2°C 48.4°F9.1°C 93% Calm Calm -- 29.95 in1014.2 mb - 0.00 in0.0 mm 0.00 in0.0 mm
12:10 AM 50.5°F10.3°C 48.3°F9.1°C 92% Calm Calm -- 29.94 in1013.9 mb - 0.00 in0.0 mm 0.00 in0.0 mm
12:00 AM 50.9°F10.5°C 48.7°F9.3°C 92% Calm Calm -- 29.94 in1013.9 mb - 0.00 in0.0 mm 0.00 in0.0 mm